Berkey, Ohio
Current Conditions -  °F | °C
As of 10:52 PM on Thursday 27 Nov 2014 (Local Time) from KTOL Reporting Station
Scattered Clouds Scattered Clouds  
Wind Chill: 15°   Ceiling: Unl
Heat Index: 25°   Visibility: 10mi
Dew Point: 15°   Wind: 10mph
Humidity: 66%   Direction: 330°NNW
Pressure: 30.32"   Gusts: 17mph
Location:  41.72°N, 83.84°W
Report Text: KTOL 280352Z 33009G15KT 10SM SCT060 M04/M09 A3032 RMK AO2 SLP276 T10391094
Loading
Personal Weather Stations






























Interactive Weather Map New forecast layout! Learn more

10-Day Weather Forecast

Advertisements
Track Severe Weather on mobile